sensor_id;sensor_type;location;lat;lon;timestamp;temperature;humidity
6956;DHT22;50345;51.136;16.886;2023-03-13T00:01:31;6.50;99.90
6956;DHT22;50345;51.136;16.886;2023-03-13T00:03:57;6.50;99.90
6956;DHT22;50345;51.136;16.886;2023-03-13T00:06:25;6.60;99.90
6956;DHT22;50345;51.136;16.886;2023-03-13T00:08:51;6.60;99.90
6956;DHT22;50345;51.136;16.886;2023-03-13T00:11:17;6.60;99.90
6956;DHT22;50345;51.136;16.886;2023-03-13T00:13:43;6.60;99.90
6956;DHT22;50345;51.136;16.886;2023-03-13T00:16:13;6.60;99.90
6956;DHT22;50345;51.136;16.886;2023-03-13T00:18:47;6.60;99.90
6956;DHT22;50345;51.136;16.886;2023-03-13T00:21:13;6.60;99.90
6956;DHT22;50345;51.136;16.886;2023-03-13T00:23:39;6.60;99.90
6956;DHT22;50345;51.136;16.886;2023-03-13T00:26:09;6.60;99.90
6956;DHT22;50345;51.136;16.886;2023-03-13T00:28:36;6.60;99.90
6956;DHT22;50345;51.136;16.886;2023-03-13T00:31:08;6.60;99.90
6956;DHT22;50345;51.136;16.886;2023-03-13T00:33:35;6.60;99.90
6956;DHT22;50345;51.136;16.886;2023-03-13T00:36:04;6.60;99.90
6956;DHT22;50345;51.136;16.886;2023-03-13T00:38:30;6.60;99.90
6956;DHT22;50345;51.136;16.886;2023-03-13T00:43:29;6.60;99.90
6956;DHT22;50345;51.136;16.886;2023-03-13T00:45:55;6.60;99.90
6956;DHT22;50345;51.136;16.886;2023-03-13T00:48:21;6.60;99.90
6956;DHT22;50345;51.136;16.886;2023-03-13T00:50:47;6.60;99.90
6956;DHT22;50345;51.136;16.886;2023-03-13T00:53:12;6.60;99.90
6956;DHT22;50345;51.136;16.886;2023-03-13T00:55:38;6.60;99.90
6956;DHT22;50345;51.136;16.886;2023-03-13T00:58:03;6.60;99.90
6956;DHT22;50345;51.136;16.886;2023-03-13T01:00:29;6.60;99.90
6956;DHT22;50345;51.136;16.886;2023-03-13T01:02:55;6.60;99.90
6956;DHT22;50345;51.136;16.886;2023-03-13T01:05:20;6.60;99.90
6956;DHT22;50345;51.136;16.886;2023-03-13T01:07:46;6.60;99.90
6956;DHT22;50345;51.136;16.886;2023-03-13T01:10:11;6.60;99.90
6956;DHT22;50345;51.136;16.886;2023-03-13T01:12:37;6.60;99.90
6956;DHT22;50345;51.136;16.886;2023-03-13T01:15:02;6.60;99.90
6956;DHT22;50345;51.136;16.886;2023-03-13T01:17:28;6.60;99.90
6956;DHT22;50345;51.136;16.886;2023-03-13T01:19:55;6.60;99.90
6956;DHT22;50345;51.136;16.886;2023-03-13T01:22:21;6.60;99.90
6956;DHT22;50345;51.136;16.886;2023-03-13T01:24:47;6.60;99.90
6956;DHT22;50345;51.136;16.886;2023-03-13T01:27:17;6.70;99.90
6956;DHT22;50345;51.136;16.886;2023-03-13T01:29:42;6.70;99.90
6956;DHT22;50345;51.136;16.886;2023-03-13T01:32:08;6.70;99.90
6956;DHT22;50345;51.136;16.886;2023-03-13T01:34:34;6.70;99.90
6956;DHT22;50345;51.136;16.886;2023-03-13T01:37:00;6.70;99.90
6956;DHT22;50345;51.136;16.886;2023-03-13T01:39:25;6.70;99.90
6956;DHT22;50345;51.136;16.886;2023-03-13T01:41:51;6.70;99.90
6956;DHT22;50345;51.136;16.886;2023-03-13T01:44:22;6.70;99.90
6956;DHT22;50345;51.136;16.886;2023-03-13T01:46:48;6.70;99.90
6956;DHT22;50345;51.136;16.886;2023-03-13T01:49:17;6.70;99.90
6956;DHT22;50345;51.136;16.886;2023-03-13T01:51:48;6.80;99.90
6956;DHT22;50345;51.136;16.886;2023-03-13T01:57:18;6.70;99.90
6956;DHT22;50345;51.136;16.886;2023-03-13T02:02:16;6.70;99.90
6956;DHT22;50345;51.136;16.886;2023-03-13T02:04:47;6.70;99.90
6956;DHT22;50345;51.136;16.886;2023-03-13T02:07:19;6.70;99.90
6956;DHT22;50345;51.136;16.886;2023-03-13T02:09:48;6.70;99.90
6956;DHT22;50345;51.136;16.886;2023-03-13T02:12:42;6.60;99.90
6956;DHT22;50345;51.136;16.886;2023-03-13T02:15:19;6.60;99.90
6956;DHT22;50345;51.136;16.886;2023-03-13T02:17:46;6.60;99.90
6956;DHT22;50345;51.136;16.886;2023-03-13T02:20:14;6.60;99.90
6956;DHT22;50345;51.136;16.886;2023-03-13T02:25:51;6.70;99.90
6956;DHT22;50345;51.136;16.886;2023-03-13T02:28:24;6.70;99.90
6956;DHT22;50345;51.136;16.886;2023-03-13T02:30:54;6.70;99.90
6956;DHT22;50345;51.136;16.886;2023-03-13T02:33:21;6.70;99.90
6956;DHT22;50345;51.136;16.886;2023-03-13T02:35:50;6.70;99.90
6956;DHT22;50345;51.136;16.886;2023-03-13T02:38:20;6.70;99.90
6956;DHT22;50345;51.136;16.886;2023-03-13T02:40:48;6.70;99.90
6956;DHT22;50345;51.136;16.886;2023-03-13T02:43:34;6.70;99.90
6956;DHT22;50345;51.136;16.886;2023-03-13T02:46:10;6.70;99.90
6956;DHT22;50345;51.136;16.886;2023-03-13T02:48:41;6.70;99.90
6956;DHT22;50345;51.136;16.886;2023-03-13T02:54:02;6.70;99.90
6956;DHT22;50345;51.136;16.886;2023-03-13T02:56:30;6.70;99.90
6956;DHT22;50345;51.136;16.886;2023-03-13T02:58:57;6.70;99.90
6956;DHT22;50345;51.136;16.886;2023-03-13T03:01:23;6.70;99.90
6956;DHT22;50345;51.136;16.886;2023-03-13T03:03:48;6.70;99.90
6956;DHT22;50345;51.136;16.886;2023-03-13T03:06:14;6.70;99.90
6956;DHT22;50345;51.136;16.886;2023-03-13T03:08:41;6.70;99.90
6956;DHT22;50345;51.136;16.886;2023-03-13T03:11:08;6.70;99.90
6956;DHT22;50345;51.136;16.886;2023-03-13T03:13:34;6.70;99.90
6956;DHT22;50345;51.136;16.886;2023-03-13T03:16:05;6.80;99.90
6956;DHT22;50345;51.136;16.886;2023-03-13T03:18:31;6.80;99.90
6956;DHT22;50345;51.136;16.886;2023-03-13T03:20:56;6.80;99.90
6956;DHT22;50345;51.136;16.886;2023-03-13T03:23:22;6.80;99.90
6956;DHT22;50345;51.136;16.886;2023-03-13T03:25:48;6.70;99.90
6956;DHT22;50345;51.136;16.886;2023-03-13T03:28:13;6.70;99.90
6956;DHT22;50345;51.136;16.886;2023-03-13T03:30:39;6.70;99.90
6956;DHT22;50345;51.136;16.886;2023-03-13T03:33:04;6.60;99.90
6956;DHT22;50345;51.136;16.886;2023-03-13T03:35:30;6.60;99.90
6956;DHT22;50345;51.136;16.886;2023-03-13T03:37:56;6.60;99.90
6956;DHT22;50345;51.136;16.886;2023-03-13T03:40:21;6.60;99.90
6956;DHT22;50345;51.136;16.886;2023-03-13T03:42:47;6.60;99.90
6956;DHT22;50345;51.136;16.886;2023-03-13T03:45:12;6.70;99.90
6956;DHT22;50345;51.136;16.886;2023-03-13T03:47:38;6.70;99.90
6956;DHT22;50345;51.136;16.886;2023-03-13T03:50:04;6.80;99.90
6956;DHT22;50345;51.136;16.886;2023-03-13T03:52:29;6.80;99.90
6956;DHT22;50345;51.136;16.886;2023-03-13T03:54:55;6.80;99.90
6956;DHT22;50345;51.136;16.886;2023-03-13T03:57:20;6.90;99.90
6956;DHT22;50345;51.136;16.886;2023-03-13T03:59:46;6.90;99.90
6956;DHT22;50345;51.136;16.886;2023-03-13T04:02:11;6.90;99.90
6956;DHT22;50345;51.136;16.886;2023-03-13T04:04:37;6.90;99.90
6956;DHT22;50345;51.136;16.886;2023-03-13T04:07:03;7.00;99.90
6956;DHT22;50345;51.136;16.886;2023-03-13T04:09:28;7.00;99.90
6956;DHT22;50345;51.136;16.886;2023-03-13T04:11:54;7.00;99.90
6956;DHT22;50345;51.136;16.886;2023-03-13T04:14:19;7.00;99.90
6956;DHT22;50345;51.136;16.886;2023-03-13T04:16:45;7.00;99.90
6956;DHT22;50345;51.136;16.886;2023-03-13T04:19:10;7.10;99.90
6956;DHT22;50345;51.136;16.886;2023-03-13T04:21:36;7.10;99.90
6956;DHT22;50345;51.136;16.886;2023-03-13T04:24:04;7.10;99.90
6956;DHT22;50345;51.136;16.886;2023-03-13T04:26:29;7.10;99.90
6956;DHT22;50345;51.136;16.886;2023-03-13T04:28:55;7.10;99.90
6956;DHT22;50345;51.136;16.886;2023-03-13T04:31:20;7.10;99.90
6956;DHT22;50345;51.136;16.886;2023-03-13T04:33:46;7.10;99.90
6956;DHT22;50345;51.136;16.886;2023-03-13T04:36:11;7.10;99.90
6956;DHT22;50345;51.136;16.886;2023-03-13T04:38:37;7.20;99.90
6956;DHT22;50345;51.136;16.886;2023-03-13T04:41:03;7.20;99.90
6956;DHT22;50345;51.136;16.886;2023-03-13T04:43:28;7.20;99.90
6956;DHT22;50345;51.136;16.886;2023-03-13T04:45:54;7.20;99.90
6956;DHT22;50345;51.136;16.886;2023-03-13T04:48:19;7.30;99.90
6956;DHT22;50345;51.136;16.886;2023-03-13T04:50:47;7.30;99.90
6956;DHT22;50345;51.136;16.886;2023-03-13T04:53:13;7.30;99.90
6956;DHT22;50345;51.136;16.886;2023-03-13T04:55:39;7.40;99.90
6956;DHT22;50345;51.136;16.886;2023-03-13T04:58:04;7.40;99.90
6956;DHT22;50345;51.136;16.886;2023-03-13T05:00:30;7.40;99.90
6956;DHT22;50345;51.136;16.886;2023-03-13T05:02:55;7.40;99.90
6956;DHT22;50345;51.136;16.886;2023-03-13T05:05:21;7.40;99.90
6956;DHT22;50345;51.136;16.886;2023-03-13T05:07:47;7.50;99.90
6956;DHT22;50345;51.136;16.886;2023-03-13T05:10:12;7.50;99.90
6956;DHT22;50345;51.136;16.886;2023-03-13T05:12:38;7.50;99.90
6956;DHT22;50345;51.136;16.886;2023-03-13T05:15:03;7.50;99.90
6956;DHT22;50345;51.136;16.886;2023-03-13T05:17:29;7.50;99.90
6956;DHT22;50345;51.136;16.886;2023-03-13T05:19:55;7.50;99.90
6956;DHT22;50345;51.136;16.886;2023-03-13T05:22:20;7.50;99.90
6956;DHT22;50345;51.136;16.886;2023-03-13T05:24:46;7.50;99.90
6956;DHT22;50345;51.136;16.886;2023-03-13T05:27:11;7.40;99.90
6956;DHT22;50345;51.136;16.886;2023-03-13T05:29:37;7.40;99.90
6956;DHT22;50345;51.136;16.886;2023-03-13T05:32:03;7.40;99.90
6956;DHT22;50345;51.136;16.886;2023-03-13T05:34:29;7.40;99.90
6956;DHT22;50345;51.136;16.886;2023-03-13T05:36:54;7.40;99.90
6956;DHT22;50345;51.136;16.886;2023-03-13T05:39:20;7.40;99.90
6956;DHT22;50345;51.136;16.886;2023-03-13T05:41:45;7.40;99.90
6956;DHT22;50345;51.136;16.886;2023-03-13T05:44:11;7.50;99.90
6956;DHT22;50345;51.136;16.886;2023-03-13T05:46:36;7.50;99.90
6956;DHT22;50345;51.136;16.886;2023-03-13T05:49:02;7.50;99.90
6956;DHT22;50345;51.136;16.886;2023-03-13T05:51:27;7.50;99.90
6956;DHT22;50345;51.136;16.886;2023-03-13T05:53:53;7.50;99.90
6956;DHT22;50345;51.136;16.886;2023-03-13T05:56:18;7.60;99.90
6956;DHT22;50345;51.136;16.886;2023-03-13T05:58:44;7.60;99.90
6956;DHT22;50345;51.136;16.886;2023-03-13T06:01:11;7.60;99.90
6956;DHT22;50345;51.136;16.886;2023-03-13T06:03:37;7.70;99.90
6956;DHT22;50345;51.136;16.886;2023-03-13T06:06:03;7.80;99.90
6956;DHT22;50345;51.136;16.886;2023-03-13T06:08:29;7.80;99.90
6956;DHT22;50345;51.136;16.886;2023-03-13T06:10:58;7.90;99.90
6956;DHT22;50345;51.136;16.886;2023-03-13T06:13:24;8.00;99.90
6956;DHT22;50345;51.136;16.886;2023-03-13T06:15:51;8.00;99.90
6956;DHT22;50345;51.136;16.886;2023-03-13T06:18:17;8.10;99.90
6956;DHT22;50345;51.136;16.886;2023-03-13T06:20:42;8.10;99.90
6956;DHT22;50345;51.136;16.886;2023-03-13T06:23:08;8.10;99.90
6956;DHT22;50345;51.136;16.886;2023-03-13T06:25:34;8.20;99.90
6956;DHT22;50345;51.136;16.886;2023-03-13T06:27:59;8.20;99.90
6956;DHT22;50345;51.136;16.886;2023-03-13T06:30:25;8.30;99.90
6956;DHT22;50345;51.136;16.886;2023-03-13T06:32:51;8.30;99.90
6956;DHT22;50345;51.136;16.886;2023-03-13T06:35:16;8.40;99.90
6956;DHT22;50345;51.136;16.886;2023-03-13T06:37:42;8.40;99.90
6956;DHT22;50345;51.136;16.886;2023-03-13T06:40:08;8.50;99.90
6956;DHT22;50345;51.136;16.886;2023-03-13T06:42:34;8.60;99.90
6956;DHT22;50345;51.136;16.886;2023-03-13T06:45:00;8.60;99.90
6956;DHT22;50345;51.136;16.886;2023-03-13T06:47:30;8.70;99.90
6956;DHT22;50345;51.136;16.886;2023-03-13T06:49:55;8.80;99.90
6956;DHT22;50345;51.136;16.886;2023-03-13T06:52:21;8.90;99.90
6956;DHT22;50345;51.136;16.886;2023-03-13T06:54:46;8.90;99.90
6956;DHT22;50345;51.136;16.886;2023-03-13T06:57:12;9.00;99.90
6956;DHT22;50345;51.136;16.886;2023-03-13T06:59:37;9.10;99.90
6956;DHT22;50345;51.136;16.886;2023-03-13T07:02:03;9.30;99.90
6956;DHT22;50345;51.136;16.886;2023-03-13T07:04:29;9.30;99.90
6956;DHT22;50345;51.136;16.886;2023-03-13T07:06:54;9.50;99.90
6956;DHT22;50345;51.136;16.886;2023-03-13T07:09:20;9.60;99.90
6956;DHT22;50345;51.136;16.886;2023-03-13T07:11:46;9.70;99.90
6956;DHT22;50345;51.136;16.886;2023-03-13T07:14:12;9.80;99.90
6956;DHT22;50345;51.136;16.886;2023-03-13T07:16:37;9.80;99.90
6956;DHT22;50345;51.136;16.886;2023-03-13T07:19:03;9.80;99.90
6956;DHT22;50345;51.136;16.886;2023-03-13T07:21:28;9.90;99.90
6956;DHT22;50345;51.136;16.886;2023-03-13T07:23:54;10.00;99.90
6956;DHT22;50345;51.136;16.886;2023-03-13T07:26:19;10.20;99.90
6956;DHT22;50345;51.136;16.886;2023-03-13T07:28:45;10.20;99.90
6956;DHT22;50345;51.136;16.886;2023-03-13T07:31:16;10.20;99.90
6956;DHT22;50345;51.136;16.886;2023-03-13T07:33:42;10.30;99.90
6956;DHT22;50345;51.136;16.886;2023-03-13T07:36:09;10.40;99.90
6956;DHT22;50345;51.136;16.886;2023-03-13T07:38:35;10.70;99.90
6956;DHT22;50345;51.136;16.886;2023-03-13T07:41:01;10.90;99.90
6956;DHT22;50345;51.136;16.886;2023-03-13T07:43:27;11.20;99.90
6956;DHT22;50345;51.136;16.886;2023-03-13T07:46:01;11.60;99.90
6956;DHT22;50345;51.136;16.886;2023-03-13T07:48:38;11.70;99.90
6956;DHT22;50345;51.136;16.886;2023-03-13T07:51:06;11.80;99.90
6956;DHT22;50345;51.136;16.886;2023-03-13T07:53:33;11.90;99.90
6956;DHT22;50345;51.136;16.886;2023-03-13T07:56:01;11.90;99.90
6956;DHT22;50345;51.136;16.886;2023-03-13T07:58:30;11.80;99.90
6956;DHT22;50345;51.136;16.886;2023-03-13T08:00:56;11.80;99.90
6956;DHT22;50345;51.136;16.886;2023-03-13T08:03:22;11.80;99.90
6956;DHT22;50345;51.136;16.886;2023-03-13T08:05:57;11.80;99.90
6956;DHT22;50345;51.136;16.886;2023-03-13T08:08:23;11.90;99.90
6956;DHT22;50345;51.136;16.886;2023-03-13T08:10:48;11.90;99.90
6956;DHT22;50345;51.136;16.886;2023-03-13T08:13:14;12.10;99.90
6956;DHT22;50345;51.136;16.886;2023-03-13T08:15:40;12.30;99.90
6956;DHT22;50345;51.136;16.886;2023-03-13T08:18:05;12.30;99.90
6956;DHT22;50345;51.136;16.886;2023-03-13T08:20:31;12.30;99.90
6956;DHT22;50345;51.136;16.886;2023-03-13T08:22:56;12.30;99.90
6956;DHT22;50345;51.136;16.886;2023-03-13T08:25:22;12.20;99.90
6956;DHT22;50345;51.136;16.886;2023-03-13T08:27:48;12.30;99.90
6956;DHT22;50345;51.136;16.886;2023-03-13T08:30:14;12.30;99.90
6956;DHT22;50345;51.136;16.886;2023-03-13T08:32:39;12.30;99.90
6956;DHT22;50345;51.136;16.886;2023-03-13T08:35:08;12.20;99.90
6956;DHT22;50345;51.136;16.886;2023-03-13T08:37:33;12.20;99.90
6956;DHT22;50345;51.136;16.886;2023-03-13T08:39:59;12.30;99.90
6956;DHT22;50345;51.136;16.886;2023-03-13T08:42:25;12.30;99.90
6956;DHT22;50345;51.136;16.886;2023-03-13T08:44:51;12.30;99.90
6956;DHT22;50345;51.136;16.886;2023-03-13T08:47:17;12.30;99.90
6956;DHT22;50345;51.136;16.886;2023-03-13T08:49:45;12.30;99.90
6956;DHT22;50345;51.136;16.886;2023-03-13T08:52:11;12.40;99.90
6956;DHT22;50345;51.136;16.886;2023-03-13T08:54:36;12.50;99.90
6956;DHT22;50345;51.136;16.886;2023-03-13T08:57:02;12.60;99.90
6956;DHT22;50345;51.136;16.886;2023-03-13T08:59:28;12.70;99.90
6956;DHT22;50345;51.136;16.886;2023-03-13T09:01:54;12.70;99.90
6956;DHT22;50345;51.136;16.886;2023-03-13T09:04:19;12.70;99.90
6956;DHT22;50345;51.136;16.886;2023-03-13T09:06:45;12.70;99.90
6956;DHT22;50345;51.136;16.886;2023-03-13T09:09:11;12.60;99.90
6956;DHT22;50345;51.136;16.886;2023-03-13T09:11:38;12.50;99.90
6956;DHT22;50345;51.136;16.886;2023-03-13T09:14:04;12.50;99.90
6956;DHT22;50345;51.136;16.886;2023-03-13T09:16:31;12.60;99.90
6956;DHT22;50345;51.136;16.886;2023-03-13T09:18:57;12.60;99.90
6956;DHT22;50345;51.136;16.886;2023-03-13T09:21:26;12.80;99.90
6956;DHT22;50345;51.136;16.886;2023-03-13T09:23:52;12.90;99.90
6956;DHT22;50345;51.136;16.886;2023-03-13T09:26:19;12.90;99.90
6956;DHT22;50345;51.136;16.886;2023-03-13T09:28:45;12.90;99.90
6956;DHT22;50345;51.136;16.886;2023-03-13T09:31:13;12.80;99.90
6956;DHT22;50345;51.136;16.886;2023-03-13T09:33:40;12.80;99.90
6956;DHT22;50345;51.136;16.886;2023-03-13T09:36:06;12.90;99.90
6956;DHT22;50345;51.136;16.886;2023-03-13T09:38:32;12.90;99.90
6956;DHT22;50345;51.136;16.886;2023-03-13T09:41:17;13.00;99.90
6956;DHT22;50345;51.136;16.886;2023-03-13T09:49:08;12.80;99.90
6956;DHT22;50345;51.136;16.886;2023-03-13T09:51:38;12.80;99.90
6956;DHT22;50345;51.136;16.886;2023-03-13T09:54:31;12.80;99.90
6956;DHT22;50345;51.136;16.886;2023-03-13T10:02:27;13.00;99.90
6956;DHT22;50345;51.136;16.886;2023-03-13T10:07:27;12.90;99.90
6956;DHT22;50345;51.136;16.886;2023-03-13T10:09:52;12.80;99.90
6956;DHT22;50345;51.136;16.886;2023-03-13T10:12:20;12.70;99.90
6956;DHT22;50345;51.136;16.886;2023-03-13T10:17:37;12.40;99.90
6956;DHT22;50345;51.136;16.886;2023-03-13T10:20:23;12.30;99.90
6956;DHT22;50345;51.136;16.886;2023-03-13T10:23:12;12.20;99.90
6956;DHT22;50345;51.136;16.886;2023-03-13T10:25:39;12.00;99.90
6956;DHT22;50345;51.136;16.886;2023-03-13T10:28:16;11.80;99.90
6956;DHT22;50345;51.136;16.886;2023-03-13T10:31:10;11.60;99.90
6956;DHT22;50345;51.136;16.886;2023-03-13T10:33:39;11.40;99.90
6956;DHT22;50345;51.136;16.886;2023-03-13T10:36:07;11.20;99.90
6956;DHT22;50345;51.136;16.886;2023-03-13T10:38:51;11.20;99.90
6956;DHT22;50345;51.136;16.886;2023-03-13T10:41:28;11.10;99.90
6956;DHT22;50345;51.136;16.886;2023-03-13T10:44:00;10.90;99.90
6956;DHT22;50345;51.136;16.886;2023-03-13T10:46:30;10.90;99.90
6956;DHT22;50345;51.136;16.886;2023-03-13T10:48:59;10.80;99.90
6956;DHT22;50345;51.136;16.886;2023-03-13T10:51:36;10.90;99.90
6956;DHT22;50345;51.136;16.886;2023-03-13T10:54:22;10.90;99.90
6956;DHT22;50345;51.136;16.886;2023-03-13T10:56:50;11.00;99.90
6956;DHT22;50345;51.136;16.886;2023-03-13T10:59:24;11.10;99.90
6956;DHT22;50345;51.136;16.886;2023-03-13T11:01:52;11.20;99.90
6956;DHT22;50345;51.136;16.886;2023-03-13T11:07:00;11.20;99.90
6956;DHT22;50345;51.136;16.886;2023-03-13T11:09:26;11.20;99.90
6956;DHT22;50345;51.136;16.886;2023-03-13T11:12:02;11.20;99.90
6956;DHT22;50345;51.136;16.886;2023-03-13T11:14:29;11.30;99.90
6956;DHT22;50345;51.136;16.886;2023-03-13T11:17:01;11.30;99.90
6956;DHT22;50345;51.136;16.886;2023-03-13T11:30:19;11.90;99.90
6956;DHT22;50345;51.136;16.886;2023-03-13T11:32:55;12.10;99.90
6956;DHT22;50345;51.136;16.886;2023-03-13T11:35:38;12.30;99.90
6956;DHT22;50345;51.136;16.886;2023-03-13T11:38:11;12.40;99.90
6956;DHT22;50345;51.136;16.886;2023-03-13T11:46:21;12.60;99.90
6956;DHT22;50345;51.136;16.886;2023-03-13T11:57:12;12.50;99.90
6956;DHT22;50345;51.136;16.886;2023-03-13T12:02:50;12.60;99.90
6956;DHT22;50345;51.136;16.886;2023-03-13T12:05:17;12.70;99.90
6956;DHT22;50345;51.136;16.886;2023-03-13T12:08:06;12.70;99.90
6956;DHT22;50345;51.136;16.886;2023-03-13T12:11:32;12.70;99.90
6956;DHT22;50345;51.136;16.886;2023-03-13T12:16:50;12.70;99.90
6956;DHT22;50345;51.136;16.886;2023-03-13T12:19:36;12.80;99.90
6956;DHT22;50345;51.136;16.886;2023-03-13T12:22:30;12.80;99.90
6956;DHT22;50345;51.136;16.886;2023-03-13T12:25:17;12.80;99.90
6956;DHT22;50345;51.136;16.886;2023-03-13T12:27:51;12.80;99.90
6956;DHT22;50345;51.136;16.886;2023-03-13T12:30:23;12.90;99.90
6956;DHT22;50345;51.136;16.886;2023-03-13T12:33:01;12.90;99.90
6956;DHT22;50345;51.136;16.886;2023-03-13T12:35:30;12.90;99.90
6956;DHT22;50345;51.136;16.886;2023-03-13T12:38:11;13.10;99.90
6956;DHT22;50345;51.136;16.886;2023-03-13T12:41:05;13.10;99.90
6956;DHT22;50345;51.136;16.886;2023-03-13T12:43:33;13.20;99.90
6956;DHT22;50345;51.136;16.886;2023-03-13T12:46:09;13.40;99.90
6956;DHT22;50345;51.136;16.886;2023-03-13T12:56:20;13.50;99.90
6956;DHT22;50345;51.136;16.886;2023-03-13T12:59:07;13.40;99.90
6956;DHT22;50345;51.136;16.886;2023-03-13T13:01:53;13.30;99.90
6956;DHT22;50345;51.136;16.886;2023-03-13T13:04:21;13.20;99.90
6956;DHT22;50345;51.136;16.886;2023-03-13T13:07:17;13.20;99.90
6956;DHT22;50345;51.136;16.886;2023-03-13T13:12:44;13.20;99.90
6956;DHT22;50345;51.136;16.886;2023-03-13T13:20:29;13.40;99.90
6956;DHT22;50345;51.136;16.886;2023-03-13T13:22:56;13.50;99.90
6956;DHT22;50345;51.136;16.886;2023-03-13T13:25:40;13.50;99.90
6956;DHT22;50345;51.136;16.886;2023-03-13T13:30:49;13.50;99.90
6956;DHT22;50345;51.136;16.886;2023-03-13T13:38:48;13.50;99.90
6956;DHT22;50345;51.136;16.886;2023-03-13T13:43:45;13.40;99.90
6956;DHT22;50345;51.136;16.886;2023-03-13T13:46:24;13.40;99.90
6956;DHT22;50345;51.136;16.886;2023-03-13T13:54:31;13.60;99.90
6956;DHT22;50345;51.136;16.886;2023-03-13T13:56:59;13.70;99.90
6956;DHT22;50345;51.136;16.886;2023-03-13T14:04:42;13.80;99.90
6956;DHT22;50345;51.136;16.886;2023-03-13T14:07:15;13.80;99.90
6956;DHT22;50345;51.136;16.886;2023-03-13T14:12:33;13.70;99.90
6956;DHT22;50345;51.136;16.886;2023-03-13T14:15:24;13.70;99.90
6956;DHT22;50345;51.136;16.886;2023-03-13T14:17:56;13.70;99.90
6956;DHT22;50345;51.136;16.886;2023-03-13T14:22:56;13.70;99.90
6956;DHT22;50345;51.136;16.886;2023-03-13T14:25:23;13.70;99.90
6956;DHT22;50345;51.136;16.886;2023-03-13T14:27:51;13.90;99.90
6956;DHT22;50345;51.136;16.886;2023-03-13T14:30:18;14.00;99.90
6956;DHT22;50345;51.136;16.886;2023-03-13T14:32:44;14.00;99.90
6956;DHT22;50345;51.136;16.886;2023-03-13T14:35:14;14.10;99.90
6956;DHT22;50345;51.136;16.886;2023-03-13T14:37:42;14.10;99.90
6956;DHT22;50345;51.136;16.886;2023-03-13T14:42:44;14.20;99.90
6956;DHT22;50345;51.136;16.886;2023-03-13T14:45:20;14.20;99.90
6956;DHT22;50345;51.136;16.886;2023-03-13T14:47:48;14.20;99.90
6956;DHT22;50345;51.136;16.886;2023-03-13T14:50:14;14.10;99.90
6956;DHT22;50345;51.136;16.886;2023-03-13T14:52:44;14.10;99.90
6956;DHT22;50345;51.136;16.886;2023-03-13T14:58:02;14.30;99.90
6956;DHT22;50345;51.136;16.886;2023-03-13T15:00:38;14.60;99.90
6956;DHT22;50345;51.136;16.886;2023-03-13T15:08:35;17.50;99.90
6956;DHT22;50345;51.136;16.886;2023-03-13T15:11:01;17.50;99.90
6956;DHT22;50345;51.136;16.886;2023-03-13T15:13:34;17.20;99.90
6956;DHT22;50345;51.136;16.886;2023-03-13T15:16:02;16.70;99.90
6956;DHT22;50345;51.136;16.886;2023-03-13T15:18:35;16.00;99.90
6956;DHT22;50345;51.136;16.886;2023-03-13T15:23:41;15.00;99.90
6956;DHT22;50345;51.136;16.886;2023-03-13T15:26:09;14.90;99.90
6956;DHT22;50345;51.136;16.886;2023-03-13T15:28:35;14.70;99.90
6956;DHT22;50345;51.136;16.886;2023-03-13T15:31:00;14.50;99.90
6956;DHT22;50345;51.136;16.886;2023-03-13T15:33:27;14.40;99.90
6956;DHT22;50345;51.136;16.886;2023-03-13T15:35:54;14.40;99.90
6956;DHT22;50345;51.136;16.886;2023-03-13T15:38:22;14.40;99.90
6956;DHT22;50345;51.136;16.886;2023-03-13T15:40:48;14.60;99.90
6956;DHT22;50345;51.136;16.886;2023-03-13T15:43:15;14.70;99.90
6956;DHT22;50345;51.136;16.886;2023-03-13T15:45:42;14.90;99.90
6956;DHT22;50345;51.136;16.886;2023-03-13T15:48:13;15.10;99.90
6956;DHT22;50345;51.136;16.886;2023-03-13T15:50:40;15.30;99.90
6956;DHT22;50345;51.136;16.886;2023-03-13T15:53:23;15.20;99.90
6956;DHT22;50345;51.136;16.886;2023-03-13T15:55:52;15.20;99.90
6956;DHT22;50345;51.136;16.886;2023-03-13T15:58:18;15.20;99.90
6956;DHT22;50345;51.136;16.886;2023-03-13T16:00:44;15.50;99.90
6956;DHT22;50345;51.136;16.886;2023-03-13T16:03:22;15.90;99.90
6956;DHT22;50345;51.136;16.886;2023-03-13T16:05:50;16.20;99.90
6956;DHT22;50345;51.136;16.886;2023-03-13T16:08:21;16.20;99.90
6956;DHT22;50345;51.136;16.886;2023-03-13T16:10:48;16.30;99.90
6956;DHT22;50345;51.136;16.886;2023-03-13T16:13:13;16.10;99.90
6956;DHT22;50345;51.136;16.886;2023-03-13T16:15:39;15.70;99.90
6956;DHT22;50345;51.136;16.886;2023-03-13T16:18:05;15.30;99.90
6956;DHT22;50345;51.136;16.886;2023-03-13T16:20:32;15.10;99.90
6956;DHT22;50345;51.136;16.886;2023-03-13T16:22:58;14.80;99.90
6956;DHT22;50345;51.136;16.886;2023-03-13T16:25:29;14.50;99.90
6956;DHT22;50345;51.136;16.886;2023-03-13T16:27:56;14.30;99.90
6956;DHT22;50345;51.136;16.886;2023-03-13T16:30:26;14.10;99.90
6956;DHT22;50345;51.136;16.886;2023-03-13T16:32:52;14.00;99.90
6956;DHT22;50345;51.136;16.886;2023-03-13T16:35:17;13.90;99.90
6956;DHT22;50345;51.136;16.886;2023-03-13T16:37:43;13.80;99.90
6956;DHT22;50345;51.136;16.886;2023-03-13T16:40:22;13.60;99.90
6956;DHT22;50345;51.136;16.886;2023-03-13T16:42:47;13.50;99.90
6956;DHT22;50345;51.136;16.886;2023-03-13T16:45:13;13.40;99.90
6956;DHT22;50345;51.136;16.886;2023-03-13T16:47:40;13.30;99.90
6956;DHT22;50345;51.136;16.886;2023-03-13T16:50:27;13.20;99.90
6956;DHT22;50345;51.136;16.886;2023-03-13T16:52:54;13.10;99.90
6956;DHT22;50345;51.136;16.886;2023-03-13T16:55:21;13.00;99.90
6956;DHT22;50345;51.136;16.886;2023-03-13T16:57:55;12.90;99.90
6956;DHT22;50345;51.136;16.886;2023-03-13T17:00:23;12.80;99.90
6956;DHT22;50345;51.136;16.886;2023-03-13T17:02:49;12.70;99.90
6956;DHT22;50345;51.136;16.886;2023-03-13T17:05:15;12.60;99.90
6956;DHT22;50345;51.136;16.886;2023-03-13T17:07:49;12.60;99.90
6956;DHT22;50345;51.136;16.886;2023-03-13T17:12:45;12.50;99.90
6956;DHT22;50345;51.136;16.886;2023-03-13T17:15:11;12.40;99.90
6956;DHT22;50345;51.136;16.886;2023-03-13T17:17:37;12.40;99.90
6956;DHT22;50345;51.136;16.886;2023-03-13T17:20:04;12.30;99.90
6956;DHT22;50345;51.136;16.886;2023-03-13T17:22:30;12.30;99.90
6956;DHT22;50345;51.136;16.886;2023-03-13T17:24:55;12.30;99.90
6956;DHT22;50345;51.136;16.886;2023-03-13T17:27:21;12.30;99.90
6956;DHT22;50345;51.136;16.886;2023-03-13T17:29:48;12.30;99.90
6956;DHT22;50345;51.136;16.886;2023-03-13T17:32:14;12.30;99.90
6956;DHT22;50345;51.136;16.886;2023-03-13T17:34:40;12.40;99.90
6956;DHT22;50345;51.136;16.886;2023-03-13T17:37:18;12.40;99.90
6956;DHT22;50345;51.136;16.886;2023-03-13T17:39:44;12.40;99.90
6956;DHT22;50345;51.136;16.886;2023-03-13T17:42:10;12.40;99.90
6956;DHT22;50345;51.136;16.886;2023-03-13T17:44:36;12.40;99.90
6956;DHT22;50345;51.136;16.886;2023-03-13T17:47:10;12.40;99.90
6956;DHT22;50345;51.136;16.886;2023-03-13T17:49:36;12.40;99.90